Time;durP1;ratioP1;P1;durP2;ratioP2;P2;SDS_P1;SDS_P2;PMS_P1;PMS_P2;Temp;Humidity;BMP_temperature;BMP_pressure;BME280_temperature;BME280_humidity;BME280_pressure;Samples;Min_cycle;Max_cycle;Signal;HPM_P1;HPM_P2
2024/03/04 00:02:02;;;;;;;42.92;24.75;;;6.80;99.90;;;;;;5071355;28;20037;-65
2024/03/04 00:04:27;;;;;;;46.55;26.70;;;6.80;99.90;;;;;;5072287;28;20039;-64
2024/03/04 00:06:53;;;;;;;43.58;24.45;;;6.80;99.90;;;;;;5071562;28;20040;-68
2024/03/04 00:09:19;;;;;;;39.90;23.70;;;6.80;99.90;;;;;;5068007;28;20106;-64
2024/03/04 00:11:44;;;;;;;39.60;23.60;;;6.70;99.90;;;;;;5072372;28;20502;-62
2024/03/04 00:14:10;;;;;;;40.78;23.55;;;6.70;99.90;;;;;;5064718;28;20047;-64
2024/03/04 00:16:36;;;;;;;40.53;23.88;;;6.70;99.90;;;;;;5071846;28;20051;-64
2024/03/04 00:19:03;;;;;;;43.08;26.30;;;6.70;99.90;;;;;;5070756;28;20044;-64
2024/03/04 00:21:29;;;;;;;43.20;25.10;;;6.70;99.90;;;;;;5068440;28;20079;-64
2024/03/04 00:23:55;;;;;;;46.67;27.52;;;6.70;99.90;;;;;;5064423;28;20589;-63
2024/03/04 00:26:21;;;;;;;45.47;25.77;;;6.70;99.90;;;;;;5054203;28;20108;-64
2024/03/04 00:28:47;;;;;;;44.60;25.75;;;6.70;99.90;;;;;;5069490;28;20046;-65
2024/03/04 00:31:12;;;;;;;44.72;25.10;;;6.60;99.90;;;;;;5070197;28;20120;-64
2024/03/04 00:33:38;;;;;;;43.80;24.65;;;6.60;99.90;;;;;;5071536;28;20032;-64
2024/03/04 00:36:07;;;;;;;43.63;24.90;;;6.60;99.90;;;;;;5063396;28;20106;-64
2024/03/04 00:38:33;;;;;;;43.45;24.00;;;6.50;99.90;;;;;;5071578;28;20765;-65
2024/03/04 00:40:58;;;;;;;39.40;23.38;;;6.50;99.90;;;;;;5052346;28;20155;-64
2024/03/04 00:43:24;;;;;;;38.65;21.38;;;6.50;99.90;;;;;;5071076;28;20075;-63
2024/03/04 00:45:50;;;;;;;38.17;21.58;;;6.40;99.90;;;;;;5070942;28;20036;-64
2024/03/04 00:48:15;;;;;;;40.60;22.17;;;6.40;99.90;;;;;;5070915;28;20044;-64
2024/03/04 00:50:41;;;;;;;43.42;25.20;;;6.30;99.90;;;;;;5068373;28;20049;-63
2024/03/04 00:53:07;;;;;;;45.85;25.75;;;6.30;99.90;;;;;;5070533;28;20397;-64
2024/03/04 00:55:33;;;;;;;43.67;25.65;;;6.30;99.90;;;;;;5071161;28;20086;-64
2024/03/04 00:57:59;;;;;;;43.13;25.63;;;6.30;99.90;;;;;;5070922;28;20072;-64
2024/03/04 01:00:24;;;;;;;42.45;25.25;;;6.30;99.90;;;;;;5049905;28;20045;-63
2024/03/04 01:02:53;;;;;;;44.20;24.63;;;6.30;99.90;;;;;;5070705;28;20119;-64
2024/03/04 01:05:18;;;;;;;35.33;20.98;;;6.20;99.90;;;;;;5070595;28;20097;-64
2024/03/04 01:07:44;;;;;;;34.88;19.50;;;6.20;99.90;;;;;;5071597;28;20044;-64
2024/03/04 01:10:10;;;;;;;31.58;18.95;;;6.20;99.90;;;;;;5070012;28;20371;-64
2024/03/04 01:12:35;;;;;;;33.22;18.83;;;6.10;99.90;;;;;;5070068;28;20493;-64
2024/03/04 01:15:01;;;;;;;29.23;18.90;;;6.10;99.90;;;;;;5070995;28;20045;-64
2024/03/04 01:17:28;;;;;;;30.17;18.17;;;6.10;99.90;;;;;;5071542;28;20045;-64
2024/03/04 01:19:53;;;;;;;31.85;19.10;;;6.10;99.90;;;;;;5067292;28;20509;-65
2024/03/04 01:22:19;;;;;;;33.42;20.17;;;6.10;99.90;;;;;;5069016;28;20073;-63
2024/03/04 01:24:49;;;;;;;33.88;21.17;;;6.10;99.90;;;;;;5066898;28;20032;-63
2024/03/04 01:27:16;;;;;;;37.85;21.60;;;6.10;99.90;;;;;;5066004;28;20119;-64
2024/03/04 01:29:41;;;;;;;37.72;20.98;;;6.10;99.90;;;;;;5045634;28;20040;-64
2024/03/04 01:32:09;;;;;;;37.85;21.58;;;6.10;99.90;;;;;;5052411;28;20047;-65
2024/03/04 01:34:39;;;;;;;33.75;20.10;;;6.00;99.90;;;;;;5067984;28;20540;-65
2024/03/04 01:37:09;;;;;;;24.77;16.08;;;6.00;99.90;;;;;;5070323;28;20033;-64
2024/03/04 01:39:35;;;;;;;24.55;15.70;;;6.00;99.90;;;;;;5066171;28;20029;-65
2024/03/04 01:42:01;;;;;;;30.20;18.42;;;6.00;99.90;;;;;;5068760;28;20090;-65
2024/03/04 01:44:33;;;;;;;35.47;20.60;;;5.90;99.90;;;;;;5070527;28;20040;-65
2024/03/04 01:47:02;;;;;;;37.03;21.45;;;5.90;99.90;;;;;;5066328;28;20055;-64
2024/03/04 01:49:28;;;;;;;39.85;21.58;;;5.80;99.90;;;;;;5069455;28;20039;-64
2024/03/04 01:51:55;;;;;;;34.50;20.88;;;5.80;99.90;;;;;;5068949;28;20037;-63
2024/03/04 01:54:21;;;;;;;42.22;21.63;;;5.80;99.90;;;;;;5068857;28;20071;-65
2024/03/04 01:56:48;;;;;;;40.67;21.67;;;5.90;99.90;;;;;;5069715;28;20047;-65
2024/03/04 01:59:13;;;;;;;43.35;23.42;;;5.80;99.90;;;;;;5064336;28;20067;-64
2024/03/04 02:01:39;;;;;;;41.75;23.48;;;5.80;99.90;;;;;;5063876;28;20428;-65
2024/03/04 02:04:05;;;;;;;38.67;22.90;;;5.80;99.90;;;;;;5068612;28;20043;-64
2024/03/04 02:06:31;;;;;;;43.63;24.00;;;5.80;99.90;;;;;;5070405;28;20040;-65
2024/03/04 02:08:57;;;;;;;40.80;22.33;;;5.80;99.90;;;;;;5069682;28;20401;-63
2024/03/04 02:11:24;;;;;;;42.63;19.48;;;5.70;99.90;;;;;;5068881;28;20044;-64
2024/03/04 02:13:50;;;;;;;34.63;18.75;;;5.60;99.90;;;;;;5069312;28;20607;-64
2024/03/04 02:16:16;;;;;;;33.15;18.88;;;5.50;99.90;;;;;;5070136;28;20040;-64
2024/03/04 02:18:41;;;;;;;37.00;20.35;;;5.50;99.90;;;;;;5068392;28;20500;-64
2024/03/04 02:21:08;;;;;;;35.30;19.08;;;5.50;99.90;;;;;;5062324;28;20037;-63
2024/03/04 02:23:34;;;;;;;37.75;21.25;;;5.50;99.90;;;;;;5069659;28;20404;-65
2024/03/04 02:26:00;;;;;;;40.42;22.52;;;5.60;99.90;;;;;;5066759;28;20044;-65
2024/03/04 02:28:28;;;;;;;36.97;21.02;;;5.60;99.90;;;;;;5069616;28;20032;-65
2024/03/04 02:30:57;;;;;;;36.40;20.58;;;5.60;99.90;;;;;;5069124;28;20036;-64
2024/03/04 02:33:26;;;;;;;32.10;19.17;;;5.70;99.90;;;;;;5064448;28;20040;-65
2024/03/04 02:35:51;;;;;;;31.20;18.33;;;5.60;99.90;;;;;;5059987;28;20437;-64
2024/03/04 02:38:20;;;;;;;37.20;21.23;;;5.50;99.90;;;;;;5069310;28;20037;-63
2024/03/04 02:40:49;;;;;;;35.90;21.63;;;5.50;99.90;;;;;;5068932;28;20078;-64
2024/03/04 02:43:16;;;;;;;40.63;22.48;;;5.50;99.90;;;;;;5069540;28;20094;-65
2024/03/04 02:45:41;;;;;;;39.38;23.65;;;5.50;99.90;;;;;;5064926;28;20048;-63
2024/03/04 02:48:07;;;;;;;41.28;23.48;;;5.60;99.90;;;;;;5069099;28;20432;-64
2024/03/04 02:50:33;;;;;;;44.15;24.67;;;5.60;99.90;;;;;;5068007;28;20044;-65
2024/03/04 02:53:01;;;;;;;52.15;25.15;;;5.70;99.90;;;;;;5069694;28;20032;-64
2024/03/04 02:55:27;;;;;;;44.90;23.52;;;5.70;99.90;;;;;;5067364;28;20413;-63
2024/03/04 02:57:52;;;;;;;45.67;25.42;;;5.80;99.90;;;;;;5070310;28;20086;-62
2024/03/04 03:00:18;;;;;;;50.60;26.23;;;5.80;99.90;;;;;;5067894;28;20033;-64
2024/03/04 03:02:44;;;;;;;51.60;26.55;;;5.90;99.90;;;;;;5060646;28;20068;-63
2024/03/04 03:05:10;;;;;;;70.10;28.33;;;5.90;99.90;;;;;;5067707;28;20032;-65
2024/03/04 03:07:36;;;;;;;57.53;29.20;;;6.00;99.90;;;;;;5071388;28;20047;-64
2024/03/04 03:10:03;;;;;;;60.95;29.85;;;6.10;99.90;;;;;;5064660;28;20036;-64
2024/03/04 03:12:28;;;;;;;61.70;29.95;;;6.10;99.90;;;;;;5072196;28;20040;-64
2024/03/04 03:14:55;;;;;;;61.58;29.83;;;6.20;99.90;;;;;;5073026;28;20051;-64
2024/03/04 03:17:22;;;;;;;69.45;32.28;;;6.20;99.90;;;;;;5054167;28;20060;-64
2024/03/04 03:19:47;;;;;;;68.78;31.58;;;6.30;99.90;;;;;;5071516;28;20108;-65
2024/03/04 03:22:13;;;;;;;62.33;31.25;;;6.40;99.90;;;;;;5069655;28;20438;-64
2024/03/04 03:24:41;;;;;;;67.70;31.92;;;6.40;99.90;;;;;;5072594;28;20042;-64
2024/03/04 03:27:06;;;;;;;69.07;31.10;;;6.50;99.90;;;;;;5070176;28;20044;-65
2024/03/04 03:29:32;;;;;;;67.43;32.70;;;6.50;99.90;;;;;;5069483;28;20044;-65
2024/03/04 03:31:58;;;;;;;66.75;31.65;;;6.60;99.90;;;;;;5071082;28;20036;-65
2024/03/04 03:34:23;;;;;;;69.57;32.00;;;6.60;99.90;;;;;;5071180;28;20428;-64
2024/03/04 03:36:49;;;;;;;70.65;32.83;;;6.70;99.90;;;;;;5069162;28;20082;-63
2024/03/04 03:39:14;;;;;;;80.97;33.45;;;6.70;99.90;;;;;;5071751;28;20569;-62
2024/03/04 03:41:40;;;;;;;76.18;34.15;;;6.80;99.90;;;;;;5071544;28;20031;-63
2024/03/04 03:44:07;;;;;;;78.32;33.78;;;6.80;99.90;;;;;;5070531;28;20021;-63
2024/03/04 03:46:34;;;;;;;86.45;35.00;;;6.90;99.90;;;;;;5066532;28;20082;-62
2024/03/04 03:48:59;;;;;;;72.28;33.85;;;6.90;99.90;;;;;;5054683;28;20080;-64
2024/03/04 03:51:25;;;;;;;76.85;33.30;;;7.00;99.90;;;;;;5070947;28;20075;-64
2024/03/04 03:53:51;;;;;;;90.25;34.80;;;7.00;99.90;;;;;;5071258;28;20033;-62
2024/03/04 03:56:17;;;;;;;87.22;33.50;;;7.10;99.90;;;;;;5072526;28;20086;-62
2024/03/04 03:58:43;;;;;;;85.28;35.33;;;7.00;99.90;;;;;;5072885;28;20089;-64
2024/03/04 04:01:10;;;;;;;86.60;34.63;;;7.10;99.90;;;;;;5071383;28;20040;-65
2024/03/04 04:03:36;;;;;;;86.30;35.67;;;7.10;99.90;;;;;;5072611;28;20032;-65
2024/03/04 04:06:01;;;;;;;71.78;34.28;;;7.20;99.90;;;;;;5070415;28;20677;-65
2024/03/04 04:08:28;;;;;;;87.43;34.80;;;7.20;99.90;;;;;;5054212;28;20043;-64
2024/03/04 04:10:54;;;;;;;92.75;36.15;;;7.20;99.90;;;;;;5069603;28;20043;-65
2024/03/04 04:13:20;;;;;;;92.03;34.10;;;7.30;99.90;;;;;;5072359;28;20111;-63
2024/03/04 04:15:46;;;;;;;91.38;34.35;;;7.30;99.90;;;;;;5072126;28;20040;-64
2024/03/04 04:18:12;;;;;;;93.75;36.30;;;7.30;99.90;;;;;;5068511;28;20051;-64
2024/03/04 04:20:38;;;;;;;89.47;34.45;;;7.30;99.90;;;;;;5067443;28;20044;-64
2024/03/04 04:23:04;;;;;;;90.97;35.95;;;7.40;99.90;;;;;;5072254;28;20058;-65
2024/03/04 04:25:29;;;;;;;84.18;34.30;;;7.40;99.90;;;;;;5072502;28;20727;-65
2024/03/04 04:27:55;;;;;;;86.53;34.60;;;7.40;99.90;;;;;;5072681;28;20075;-64
2024/03/04 04:30:21;;;;;;;87.72;36.47;;;7.50;99.90;;;;;;5071882;28;20040;-63
2024/03/04 04:32:48;;;;;;;88.78;35.25;;;7.50;99.90;;;;;;5070953;28;20123;-65
2024/03/04 04:35:13;;;;;;;93.13;36.25;;;7.50;99.90;;;;;;5054203;28;20054;-65
2024/03/04 04:37:41;;;;;;;96.75;36.60;;;7.50;99.90;;;;;;5068567;28;20113;-63
2024/03/04 04:40:09;;;;;;;82.90;35.03;;;7.50;99.90;;;;;;5071541;28;20401;-63
2024/03/04 04:42:35;;;;;;;88.38;35.28;;;7.50;99.90;;;;;;5072344;28;20120;-63
2024/03/04 04:45:01;;;;;;;92.43;37.50;;;7.60;99.90;;;;;;5072099;28;20111;-66
2024/03/04 04:47:27;;;;;;;98.22;37.03;;;7.60;99.90;;;;;;5070222;28;20042;-65
2024/03/04 04:49:53;;;;;;;91.55;36.50;;;7.60;99.90;;;;;;5069652;28;20120;-65
2024/03/04 04:52:18;;;;;;;85.03;37.75;;;7.60;99.90;;;;;;5071626;28;20048;-64
2024/03/04 04:54:44;;;;;;;95.32;37.47;;;7.60;99.90;;;;;;5070825;28;20032;-65
2024/03/04 04:57:10;;;;;;;90.90;37.10;;;7.70;99.90;;;;;;5071593;28;20090;-65
2024/03/04 04:59:36;;;;;;;86.60;37.40;;;7.70;99.90;;;;;;5069956;28;20039;-64
2024/03/04 05:02:01;;;;;;;82.20;35.92;;;7.70;99.90;;;;;;5069558;28;20778;-64
2024/03/04 05:04:27;;;;;;;97.20;39.00;;;7.70;99.90;;;;;;5071722;28;20033;-65
2024/03/04 05:06:53;;;;;;;98.93;38.40;;;7.70;99.90;;;;;;5071501;28;20040;-63
2024/03/04 05:09:19;;;;;;;92.45;37.28;;;7.70;99.90;;;;;;5071253;28;20071;-62
2024/03/04 05:11:44;;;;;;;99.82;38.67;;;7.70;99.90;;;;;;5065314;28;20036;-63
2024/03/04 05:14:11;;;;;;;90.95;37.95;;;7.70;99.90;;;;;;5069819;28;20488;-64
2024/03/04 05:16:37;;;;;;;94.82;38.85;;;7.80;99.90;;;;;;5071613;28;20133;-64
2024/03/04 05:19:03;;;;;;;88.50;36.30;;;7.70;99.90;;;;;;5071348;28;20303;-64
2024/03/04 05:21:29;;;;;;;87.30;38.90;;;7.80;99.90;;;;;;5065337;28;20052;-64
2024/03/04 05:23:54;;;;;;;83.93;36.83;;;7.80;99.90;;;;;;5070778;28;20032;-64
2024/03/04 05:26:20;;;;;;;94.90;38.50;;;7.80;99.90;;;;;;5071102;28;20108;-64
2024/03/04 05:28:46;;;;;;;92.93;38.22;;;7.80;99.90;;;;;;5069992;28;20040;-64
2024/03/04 05:31:12;;;;;;;91.30;38.42;;;7.80;99.90;;;;;;5069321;28;20416;-65
2024/03/04 05:33:37;;;;;;;96.65;38.70;;;7.80;99.90;;;;;;5070292;28;20035;-64
2024/03/04 05:36:08;;;;;;;95.38;37.30;;;7.80;99.90;;;;;;5067335;28;20040;-64
2024/03/04 05:38:34;;;;;;;101.32;38.67;;;7.80;99.90;;;;;;5068598;28;20123;-65
2024/03/04 05:41:00;;;;;;;94.50;37.90;;;7.80;99.90;;;;;;5070412;28;20086;-65
2024/03/04 05:43:25;;;;;;;93.50;37.85;;;7.80;99.90;;;;;;5070717;28;20036;-65
2024/03/04 05:45:51;;;;;;;95.28;36.35;;;7.80;99.90;;;;;;5069060;28;20025;-65
2024/03/04 05:48:17;;;;;;;88.10;37.05;;;7.80;99.90;;;;;;5070176;28;20059;-64
2024/03/04 05:50:42;;;;;;;86.25;35.83;;;7.80;99.90;;;;;;5070197;28;20064;-63
2024/03/04 05:53:08;;;;;;;84.25;35.80;;;7.80;99.90;;;;;;5070941;28;20043;-65
2024/03/04 05:55:35;;;;;;;84.45;34.35;;;7.80;99.90;;;;;;5069260;28;20036;-64
2024/03/04 05:58:00;;;;;;;86.40;35.28;;;7.80;99.90;;;;;;5051359;28;20595;-65
2024/03/04 06:00:30;;;;;;;85.65;33.60;;;7.80;99.90;;;;;;5059028;28;20036;-65
2024/03/04 06:02:56;;;;;;;82.43;35.17;;;7.80;99.90;;;;;;5066617;28;20066;-63
2024/03/04 06:05:21;;;;;;;82.97;34.78;;;7.80;99.90;;;;;;5063126;28;20086;-64
2024/03/04 06:07:47;;;;;;;79.78;33.75;;;7.70;99.90;;;;;;5069920;28;20059;-64
2024/03/04 06:10:13;;;;;;;82.28;33.42;;;7.80;99.90;;;;;;5070003;28;20044;-62
2024/03/04 06:12:38;;;;;;;80.15;32.80;;;7.70;99.90;;;;;;5052561;28;20109;-62
2024/03/04 06:15:04;;;;;;;86.63;33.03;;;7.70;99.90;;;;;;5068611;28;20040;-65
2024/03/04 06:17:30;;;;;;;76.18;33.90;;;7.70;99.90;;;;;;5069277;28;20047;-62
2024/03/04 06:19:56;;;;;;;81.22;31.95;;;7.70;99.90;;;;;;5070060;28;20497;-63
2024/03/04 06:22:21;;;;;;;75.25;32.47;;;7.70;99.90;;;;;;5052092;28;20043;-65
2024/03/04 06:24:47;;;;;;;74.47;32.22;;;7.60;99.90;;;;;;5052474;28;20043;-62
2024/03/04 06:27:13;;;;;;;69.82;30.58;;;7.70;99.90;;;;;;5068233;28;20095;-62
2024/03/04 06:29:38;;;;;;;70.13;30.73;;;7.60;99.90;;;;;;5069258;28;20086;-62
2024/03/04 06:32:04;;;;;;;63.80;30.45;;;7.60;99.90;;;;;;5064955;28;20036;-64
2024/03/04 06:34:31;;;;;;;72.32;31.20;;;7.70;99.90;;;;;;5035260;28;20044;-63
2024/03/04 06:36:57;;;;;;;74.93;30.40;;;7.60;99.90;;;;;;5040668;28;20036;-62
2024/03/04 06:39:23;;;;;;;76.95;33.08;;;7.70;99.90;;;;;;5069481;28;20466;-62
2024/03/04 06:41:49;;;;;;;66.38;30.67;;;7.70;99.90;;;;;;5068464;28;20100;-63
2024/03/04 06:44:16;;;;;;;71.60;31.67;;;7.60;99.90;;;;;;5052248;28;20094;-62
2024/03/04 06:46:42;;;;;;;73.68;31.52;;;7.60;99.90;;;;;;5052441;28;20068;-62
2024/03/04 06:49:08;;;;;;;70.35;30.35;;;7.60;99.90;;;;;;5068134;28;20512;-62
2024/03/04 06:51:36;;;;;;;72.20;31.15;;;7.70;99.90;;;;;;5068555;28;20029;-62
2024/03/04 06:54:05;;;;;;;77.80;33.10;;;7.60;99.90;;;;;;5066285;28;20034;-63
2024/03/04 06:56:31;;;;;;;75.43;32.40;;;7.60;99.90;;;;;;5062986;28;20125;-63
2024/03/04 06:59:00;;;;;;;81.15;33.60;;;7.60;99.90;;;;;;5059890;28;20033;-62
2024/03/04 07:01:26;;;;;;;76.53;32.75;;;7.60;99.90;;;;;;5061281;28;20033;-66
2024/03/04 07:03:56;;;;;;;76.75;31.92;;;7.60;99.90;;;;;;5065280;28;20033;-66
2024/03/04 07:06:25;;;;;;;81.07;33.28;;;7.60;99.90;;;;;;5064316;28;20031;-64
2024/03/04 07:08:51;;;;;;;79.15;33.35;;;7.60;99.90;;;;;;5043988;28;20474;-63
2024/03/04 07:11:17;;;;;;;80.55;34.33;;;7.60;99.90;;;;;;5048557;28;20036;-65
2024/03/04 07:13:43;;;;;;;80.00;34.35;;;7.60;99.90;;;;;;5065557;28;20500;-63
2024/03/04 07:16:11;;;;;;;79.10;32.97;;;7.60;99.90;;;;;;5048996;28;20119;-63
2024/03/04 07:18:37;;;;;;;85.38;34.70;;;7.60;99.90;;;;;;5065355;28;20444;-63
2024/03/04 07:21:03;;;;;;;85.20;33.22;;;7.60;99.90;;;;;;5050837;28;20040;-63
2024/03/04 07:23:28;;;;;;;81.60;33.08;;;7.70;99.90;;;;;;5050749;28;20119;-63
2024/03/04 07:25:54;;;;;;;76.57;33.28;;;7.70;99.90;;;;;;5066440;28;20116;-63
2024/03/04 07:28:20;;;;;;;79.55;34.97;;;7.70;99.90;;;;;;5050795;28;20724;-63
2024/03/04 07:30:46;;;;;;;72.97;31.25;;;7.70;99.90;;;;;;5068825;28;20072;-63
2024/03/04 07:33:13;;;;;;;74.82;30.05;;;7.70;99.90;;;;;;5068652;28;20044;-64
2024/03/04 07:35:39;;;;;;;73.40;32.47;;;7.70;99.90;;;;;;5067820;28;20081;-63
2024/03/04 07:38:05;;;;;;;75.28;32.60;;;7.70;99.90;;;;;;5049185;28;20443;-65
2024/03/04 07:40:31;;;;;;;81.07;32.83;;;7.70;99.90;;;;;;5066593;28;20370;-65
2024/03/04 07:42:57;;;;;;;87.05;32.70;;;7.70;99.90;;;;;;5068457;28;20037;-65
2024/03/04 07:45:23;;;;;;;73.95;30.85;;;7.80;99.90;;;;;;5068723;28;20035;-65
2024/03/04 07:47:49;;;;;;;83.65;32.53;;;7.80;99.90;;;;;;5067261;28;20042;-65
2024/03/04 07:50:15;;;;;;;74.20;30.08;;;7.80;99.90;;;;;;5064526;28;20045;-65
2024/03/04 07:52:41;;;;;;;71.47;31.38;;;7.90;99.90;;;;;;5062828;28;20113;-65
2024/03/04 07:55:09;;;;;;;66.03;29.40;;;7.90;99.90;;;;;;5071525;28;20549;-64
2024/03/04 07:57:35;;;;;;;69.78;31.13;;;7.90;99.90;;;;;;5069661;28;20146;-64
2024/03/04 08:00:03;;;;;;;79.05;29.73;;;8.00;99.90;;;;;;5070813;28;20041;-65
2024/03/04 08:02:29;;;;;;;69.70;29.85;;;8.00;99.90;;;;;;5054208;28;20111;-64
2024/03/04 08:04:55;;;;;;;65.43;28.42;;;8.00;99.90;;;;;;5071405;28;20170;-64
2024/03/04 08:07:20;;;;;;;77.97;28.83;;;8.00;99.90;;;;;;5065520;28;20036;-64
2024/03/04 08:09:46;;;;;;;61.42;28.65;;;8.00;99.90;;;;;;5067841;28;20044;-65
2024/03/04 08:12:12;;;;;;;68.65;30.52;;;8.10;99.90;;;;;;5070603;28;20032;-65
2024/03/04 08:14:40;;;;;;;68.60;27.70;;;8.10;99.90;;;;;;5069352;28;20044;-65
2024/03/04 08:17:06;;;;;;;71.55;29.75;;;8.10;99.90;;;;;;5062375;28;20087;-66
2024/03/04 08:19:32;;;;;;;69.93;29.95;;;8.10;99.90;;;;;;5069124;28;20060;-64
2024/03/04 08:21:57;;;;;;;69.90;29.67;;;8.10;99.90;;;;;;5069589;28;20028;-64
2024/03/04 08:24:23;;;;;;;70.78;29.85;;;8.20;99.90;;;;;;5052879;28;20044;-65
2024/03/04 08:26:48;;;;;;;66.00;29.60;;;8.20;99.90;;;;;;5063058;28;20127;-65
2024/03/04 08:29:14;;;;;;;75.68;31.52;;;8.20;99.90;;;;;;5060285;28;20029;-65
2024/03/04 08:31:40;;;;;;;66.50;29.60;;;8.30;99.90;;;;;;5046883;28;20401;-65
2024/03/04 08:34:06;;;;;;;66.13;29.20;;;8.30;99.90;;;;;;5068418;28;20064;-64
2024/03/04 08:36:32;;;;;;;68.03;27.90;;;8.30;99.90;;;;;;5069136;28;20692;-65
2024/03/04 08:38:58;;;;;;;69.07;28.10;;;8.40;99.90;;;;;;5067035;28;20045;-65
2024/03/04 08:41:24;;;;;;;65.15;27.30;;;8.40;99.90;;;;;;5068743;28;20115;-65
2024/03/04 08:43:50;;;;;;;68.30;28.67;;;8.40;99.90;;;;;;5050731;28;20120;-64
2024/03/04 08:46:16;;;;;;;61.63;27.90;;;8.50;99.90;;;;;;5069552;28;20052;-65
2024/03/04 08:48:42;;;;;;;66.95;27.45;;;8.50;99.90;;;;;;5065206;28;20025;-65
2024/03/04 08:51:08;;;;;;;61.35;27.42;;;8.50;99.90;;;;;;5050798;28;20040;-65
2024/03/04 08:53:34;;;;;;;63.85;27.23;;;8.60;99.90;;;;;;5066675;28;20482;-64
2024/03/04 08:56:00;;;;;;;71.45;28.52;;;8.60;99.90;;;;;;5071625;28;20064;-65
2024/03/04 08:58:26;;;;;;;58.92;26.88;;;8.60;99.90;;;;;;5070038;28;20064;-63
2024/03/04 09:00:51;;;;;;;64.78;28.08;;;8.60;99.90;;;;;;5067408;28;20084;-65
2024/03/04 09:03:17;;;;;;;63.22;27.83;;;8.70;99.90;;;;;;5067668;28;20491;-66
2024/03/04 09:05:44;;;;;;;64.57;27.15;;;8.70;99.90;;;;;;5068231;28;20036;-64
2024/03/04 09:08:11;;;;;;;64.18;26.83;;;8.70;99.90;;;;;;5054569;28;20044;-65
2024/03/04 09:10:37;;;;;;;67.45;28.98;;;8.70;99.90;;;;;;5065851;28;20040;-64
2024/03/04 09:13:03;;;;;;;71.60;28.80;;;8.70;99.90;;;;;;5065352;28;20045;-64
2024/03/04 09:15:29;;;;;;;62.03;27.40;;;8.70;99.90;;;;;;5050446;28;20040;-65
2024/03/04 09:17:55;;;;;;;73.63;29.90;;;8.70;99.90;;;;;;5065472;28;20041;-65
2024/03/04 09:20:21;;;;;;;73.45;29.15;;;8.70;99.90;;;;;;5064888;28;20083;-64
2024/03/04 09:22:47;;;;;;;73.85;28.52;;;8.70;99.90;;;;;;5070053;28;20546;-64
2024/03/04 09:25:13;;;;;;;60.17;26.40;;;8.70;99.90;;;;;;5069671;28;20028;-63
2024/03/04 09:27:42;;;;;;;64.72;28.00;;;8.70;99.90;;;;;;5064387;28;20047;-64
2024/03/04 09:30:09;;;;;;;63.38;28.00;;;8.60;99.90;;;;;;5063589;28;20054;-64
2024/03/04 09:32:35;;;;;;;60.05;25.63;;;8.60;99.90;;;;;;5067411;28;20044;-63
2024/03/04 09:35:01;;;;;;;59.90;26.42;;;8.60;99.90;;;;;;5067835;28;20032;-64
2024/03/04 09:37:27;;;;;;;59.88;25.50;;;8.60;99.90;;;;;;5068656;28;20084;-65
2024/03/04 09:39:52;;;;;;;64.13;26.40;;;8.60;99.90;;;;;;5067157;28;20698;-64
2024/03/04 09:42:18;;;;;;;67.22;25.95;;;8.60;99.90;;;;;;5064312;28;20033;-64
2024/03/04 09:44:46;;;;;;;55.72;24.77;;;8.60;99.90;;;;;;5069764;28;20044;-64
2024/03/04 09:47:14;;;;;;;64.63;26.17;;;8.60;99.90;;;;;;5050100;28;20048;-65
2024/03/04 09:49:40;;;;;;;58.80;26.50;;;8.60;99.90;;;;;;5069512;28;20036;-64
2024/03/04 09:52:08;;;;;;;58.50;25.90;;;8.70;99.90;;;;;;5069838;28;20036;-65
2024/03/04 09:54:36;;;;;;;61.78;25.60;;;8.70;99.90;;;;;;5050255;28;20063;-64
2024/03/04 09:57:03;;;;;;;61.92;25.85;;;8.70;99.90;;;;;;5068111;28;20459;-64
2024/03/04 09:59:31;;;;;;;59.75;23.95;;;8.70;99.90;;;;;;5065435;28;20457;-64
2024/03/04 10:01:58;;;;;;;59.67;25.40;;;8.70;99.90;;;;;;5068895;28;20485;-64
2024/03/04 10:04:25;;;;;;;61.83;27.67;;;8.80;99.90;;;;;;5070425;28;20079;-64
2024/03/04 10:06:51;;;;;;;110.07;60.28;;;8.70;99.90;;;;;;5066274;28;20038;-63
2024/03/04 10:09:17;;;;;;;159.35;92.78;;;8.80;99.90;;;;;;5063837;28;20045;-63
2024/03/04 10:11:43;;;;;;;99.30;51.22;;;8.80;99.90;;;;;;5061372;28;20036;-63
2024/03/04 10:14:10;;;;;;;77.25;36.72;;;8.80;99.90;;;;;;5066018;28;20048;-63
2024/03/04 10:16:39;;;;;;;74.20;30.45;;;8.70;99.90;;;;;;5067080;28;21251;-62
2024/03/04 10:19:04;;;;;;;61.83;28.08;;;8.70;99.90;;;;;;5069389;28;20036;-64
2024/03/04 10:21:31;;;;;;;56.67;25.85;;;8.70;99.90;;;;;;5065227;28;20028;-64
2024/03/04 10:23:58;;;;;;;84.45;39.92;;;8.80;99.90;;;;;;5069426;28;20028;-66
2024/03/04 10:26:24;;;;;;;164.48;88.70;;;8.70;99.90;;;;;;5063943;28;20158;-62
2024/03/04 10:28:51;;;;;;;147.63;86.70;;;8.80;99.90;;;;;;5046660;28;20501;-63
2024/03/04 10:31:17;;;;;;;155.55;94.00;;;8.90;99.90;;;;;;5067232;28;20049;-65
2024/03/04 10:33:42;;;;;;;158.95;89.85;;;8.70;99.90;;;;;;5067184;28;20413;-66
2024/03/04 10:36:16;;;;;;;123.65;66.43;;;8.80;99.90;;;;;;5065857;28;20042;-62
2024/03/04 10:38:49;;;;;;;119.97;64.35;;;8.80;99.90;;;;;;5064231;28;20045;-65
2024/03/04 10:41:19;;;;;;;109.32;63.83;;;8.80;99.90;;;;;;5068196;28;20037;-62
2024/03/04 10:43:45;;;;;;;85.65;45.65;;;8.80;99.90;;;;;;5068089;28;20041;-65
2024/03/04 10:46:11;;;;;;;302.42;143.73;;;8.80;99.90;;;;;;5064614;28;20071;-62
2024/03/04 10:48:38;;;;;;;162.32;84.03;;;8.80;99.90;;;;;;5061992;28;20075;-64
2024/03/04 10:51:05;;;;;;;102.90;51.38;;;8.80;99.90;;;;;;5063813;28;20044;-65
2024/03/04 10:53:31;;;;;;;106.28;55.47;;;8.80;99.90;;;;;;5062897;28;20112;-62
2024/03/04 10:56:05;;;;;;;145.35;80.18;;;8.80;99.90;;;;;;5061937;28;20115;-64
2024/03/04 10:58:33;;;;;;;75.70;40.85;;;8.80;99.90;;;;;;5060377;28;20506;-63
2024/03/04 11:01:03;;;;;;;79.35;42.97;;;8.80;99.90;;;;;;5064933;28;20032;-68
2024/03/04 11:03:30;;;;;;;61.25;30.77;;;8.80;99.90;;;;;;5066011;28;20194;-62
2024/03/04 11:05:57;;;;;;;51.50;25.15;;;8.80;99.90;;;;;;5068528;28;20028;-63
2024/03/04 11:08:34;;;;;;;49.00;21.40;;;8.80;99.90;;;;;;5058732;28;20420;-62
2024/03/04 11:11:08;;;;;;;47.20;24.30;;;8.80;99.90;;;;;;5061747;28;20040;-62
2024/03/04 11:14:03;;;;;;;41.83;19.55;;;8.80;99.90;;;;;;5069234;28;20602;-63
2024/03/04 11:16:45;;;;;;;37.58;17.10;;;8.80;99.90;;;;;;5064226;28;20538;-63
2024/03/04 11:19:29;;;;;;;44.80;19.03;;;8.80;99.90;;;;;;5043286;28;20083;-66
2024/03/04 11:21:56;;;;;;;116.07;63.95;;;8.70;99.90;;;;;;5057800;28;20041;-62
2024/03/04 11:24:24;;;;;;;61.63;34.03;;;8.70;99.90;;;;;;5058146;28;20068;-65
2024/03/04 11:26:50;;;;;;;50.55;24.48;;;8.70;99.90;;;;;;5065467;28;20115;-63
2024/03/04 11:29:17;;;;;;;40.58;20.67;;;8.70;99.90;;;;;;5068440;28;20044;-66
2024/03/04 11:31:56;;;;;;;33.83;16.35;;;8.70;99.90;;;;;;5066512;28;20036;-63
2024/03/04 11:34:23;;;;;;;32.60;16.45;;;8.80;99.90;;;;;;5046585;28;20056;-63
2024/03/04 11:36:53;;;;;;;37.17;17.90;;;8.80;99.90;;;;;;5037821;28;20182;-65
2024/03/04 11:39:21;;;;;;;34.55;16.00;;;8.80;99.90;;;;;;5072756;28;20041;-64
2024/03/04 11:41:52;;;;;;;36.30;16.25;;;8.80;99.90;;;;;;5071952;28;20537;-63
2024/03/04 11:44:30;;;;;;;35.35;18.35;;;8.80;99.90;;;;;;5048741;28;20051;-62
2024/03/04 11:46:56;;;;;;;38.20;18.30;;;8.90;99.90;;;;;;5072054;28;20497;-62
2024/03/04 11:49:29;;;;;;;33.90;18.38;;;8.90;99.90;;;;;;5059725;28;20402;-64
2024/03/04 11:52:14;;;;;;;38.45;19.23;;;8.90;99.90;;;;;;5050376;28;20123;-62
2024/03/04 11:54:42;;;;;;;35.05;19.45;;;9.00;99.90;;;;;;5061962;28;20542;-64
2024/03/04 11:57:08;;;;;;;35.20;18.33;;;9.00;99.90;;;;;;5066313;28;20041;-65
2024/03/04 11:59:39;;;;;;;35.65;19.52;;;9.00;99.90;;;;;;5069759;28;20043;-64
2024/03/04 12:02:12;;;;;;;31.05;18.13;;;9.10;99.90;;;;;;5067089;28;20048;-63
2024/03/04 12:04:39;;;;;;;;;;;9.20;99.90;;;;;;5069838;28;20033;-64
2024/03/04 12:07:06;;;;;;;31.83;16.13;;;9.20;99.90;;;;;;5072052;28;20400;-63
2024/03/04 12:09:34;;;;;;;26.92;15.75;;;9.30;99.90;;;;;;5047836;28;20040;-64
2024/03/04 12:12:04;;;;;;;23.73;14.15;;;9.40;99.90;;;;;;5067849;28;20068;-64
2024/03/04 12:14:30;;;;;;;26.73;14.93;;;9.50;99.90;;;;;;5052195;28;20055;-64
2024/03/04 12:16:56;;;;;;;25.55;14.30;;;9.40;99.90;;;;;;5072520;28;20037;-65
2024/03/04 12:19:24;;;;;;;23.85;12.95;;;9.30;99.90;;;;;;5067617;28;20040;-64
2024/03/04 12:21:49;;;;;;;24.17;12.15;;;9.40;99.90;;;;;;5072850;28;20044;-65
2024/03/04 12:24:19;;;;;;;23.42;12.98;;;9.40;99.90;;;;;;5071779;28;20268;-64
2024/03/04 12:26:54;;;;;;;23.40;13.80;;;9.40;99.90;;;;;;5068083;28;20098;-64
2024/03/04 12:29:25;;;;;;;23.55;12.68;;;9.30;99.90;;;;;;5069983;28;20146;-64
2024/03/04 12:31:53;;;;;;;23.92;14.10;;;9.30;99.90;;;;;;5067186;28;20393;-64
2024/03/04 12:34:23;;;;;;;31.17;20.35;;;9.30;99.90;;;;;;5067426;28;20037;-65